Aeroporto :
LOGIN :

Iscrizione | Disclaimer

   EN    FR    IT 

 










Sommario :    VFR   VFR Marginale   IFR   IFR Intensivo   IFR Molto Intensivo
Visibilità : 
Base nubi : 
>= 8 km
>= 3000ft
5 / 8 km
1000 / 3000 ft
1500m / 5 km
500 / 1000 ft
800 / 1500m
200 / 500 ft
< 800m
< 200 ft
Simboli :   Temporali  Nebbia  Neve Forte  Precipitazioni Forti  Vento > 20 kt
SIGMETs :   Varie  Temporali  Ghiacco  Turbolenza  Onda orograficha  Ceneri Vulcaniche






- Altitudine del aeroporto : 370 ft


EBBE - Beauvechain AB

ULTIMO METAR :
  • 301925Z AUTO 22014KT 2100 RA OVC003/// 03/03 Q1018 YLO

METARs OBSOLETI :
  • 301855Z AUTO 22016KT 3600 BR OVC003/// 03/03 Q1018 YLO
  • 301825Z AUTO 22016KT 4200 BR BKN003/// 03/03 Q1018 YLO
  • 301755Z AUTO 22015KT 4200 -RA OVC003/// 03/02 Q1019 YLO
  • 301725Z AUTO 21015KT 3900 -RA OVC003/// 03/02 Q1019 YLO
  • 301715Z 21013KT 3000 -RADZ BR BKN003 03/02 Q1019 YLO FCST CANCEL

TAF COR TAF EBBE
Valido dal 30 a 19 ore il 01 a 07 ore UTC


301537Z 3019/0107 22010G20KT 4000 OVC005
TEMPO 3019/0103 1500 -DZ -RADZ BKN002 OVC003
BECMG 0100/0102 31010KT 6000 BKN012
TEMPO 0101/0107 31010G20KT 3000 -SHRA BKN010TCU BKN015



MetMap, La meteo Aeronautica in un colpo d'occhio ! - Copyright ORBIFLY Dicembre 2007 - Disclaimer

ORBIFLY MET'MAP TEAM :

Programmazione e sviluppo : Alexandra Zaïnal
Concezione : Baudouin d'Aumeries
Aiuto per la programmazione : Marc-Olivier Méhu
Supporto tecnico e logistico : Manuel Goepfert
Aiuto per la traduzione : Arnaldo La Scala

Contatto : metmap@orbifly.com




FONTI E CREDITI :

   NOAA